sensor_id;sensor_type;location;lat;lon;timestamp;pressure;altitude;pressure_sealevel;temperature
61595;BMP280;47397;48.194;11.632;2023-04-25T00:00:21;95334.25;;;8.06
61595;BMP280;47397;48.194;11.632;2023-04-25T00:01:22;95332.63;;;8.03
61595;BMP280;47397;48.194;11.632;2023-04-25T00:02:23;95324.19;;;8.03
61595;BMP280;47397;48.194;11.632;2023-04-25T00:03:23;95325.03;;;8.03
61595;BMP280;47397;48.194;11.632;2023-04-25T00:04:24;95325.75;;;8.08
61595;BMP280;47397;48.194;11.632;2023-04-25T00:05:25;95323.28;;;8.05
61595;BMP280;47397;48.194;11.632;2023-04-25T00:06:26;95325.00;;;8.05
61595;BMP280;47397;48.194;11.632;2023-04-25T00:07:26;95319.06;;;8.06
61595;BMP280;47397;48.194;11.632;2023-04-25T00:08:27;95317.38;;;8.06
61595;BMP280;47397;48.194;11.632;2023-04-25T00:09:27;95314.56;;;8.17
61595;BMP280;47397;48.194;11.632;2023-04-25T00:10:28;95313.94;;;8.09
61595;BMP280;47397;48.194;11.632;2023-04-25T00:11:28;95313.09;;;8.08
61595;BMP280;47397;48.194;11.632;2023-04-25T00:12:29;95311.38;;;8.10
61595;BMP280;47397;48.194;11.632;2023-04-25T00:13:29;95311.38;;;8.10
61595;BMP280;47397;48.194;11.632;2023-04-25T00:14:30;95314.75;;;8.09
61595;BMP280;47397;48.194;11.632;2023-04-25T00:15:30;95318.81;;;8.16
61595;BMP280;47397;48.194;11.632;2023-04-25T00:16:32;95318.72;;;8.21
61595;BMP280;47397;48.194;11.632;2023-04-25T00:17:32;95324.69;;;8.19
61595;BMP280;47397;48.194;11.632;2023-04-25T00:18:33;95323.22;;;8.08
61595;BMP280;47397;48.194;11.632;2023-04-25T00:19:33;95332.44;;;8.11
61595;BMP280;47397;48.194;11.632;2023-04-25T00:20:35;95329.75;;;8.19
61595;BMP280;47397;48.194;11.632;2023-04-25T00:21:35;95329.00;;;8.13
61595;BMP280;47397;48.194;11.632;2023-04-25T00:22:36;95323.13;;;8.13
61595;BMP280;47397;48.194;11.632;2023-04-25T00:23:36;95329.75;;;8.19
61595;BMP280;47397;48.194;11.632;2023-04-25T00:24:37;95328.22;;;8.11
61595;BMP280;47397;48.194;11.632;2023-04-25T00:25:37;95337.41;;;8.15
61595;BMP280;47397;48.194;11.632;2023-04-25T00:26:38;95337.34;;;8.17
61595;BMP280;47397;48.194;11.632;2023-04-25T00:27:38;95329.75;;;8.17
61595;BMP280;47397;48.194;11.632;2023-04-25T00:28:39;95325.66;;;8.13
61595;BMP280;47397;48.194;11.632;2023-04-25T00:29:39;95327.19;;;8.20
61595;BMP280;47397;48.194;11.632;2023-04-25T00:30:40;95323.00;;;8.19
61595;BMP280;47397;48.194;11.632;2023-04-25T00:31:42;95327.28;;;8.15
61595;BMP280;47397;48.194;11.632;2023-04-25T00:32:42;95324.88;;;8.09
61595;BMP280;47397;48.194;11.632;2023-04-25T00:33:43;95323.16;;;8.11
61595;BMP280;47397;48.194;11.632;2023-04-25T00:34:43;95327.22;;;8.17
61595;BMP280;47397;48.194;11.632;2023-04-25T00:35:44;95331.53;;;8.13
61595;BMP280;47397;48.194;11.632;2023-04-25T00:36:44;95334.88;;;8.15
61595;BMP280;47397;48.194;11.632;2023-04-25T00:37:44;95329.81;;;8.15
61595;BMP280;47397;48.194;11.632;2023-04-25T00:38:45;95337.28;;;8.22
61595;BMP280;47397;48.194;11.632;2023-04-25T00:39:45;95330.84;;;8.07
61595;BMP280;47397;48.194;11.632;2023-04-25T00:40:46;95328.31;;;8.07
61595;BMP280;47397;48.194;11.632;2023-04-25T00:41:46;95329.81;;;8.15
61595;BMP280;47397;48.194;11.632;2023-04-25T00:42:47;95323.94;;;8.13
61595;BMP280;47397;48.194;11.632;2023-04-25T00:43:48;95321.50;;;8.10
61595;BMP280;47397;48.194;11.632;2023-04-25T00:44:49;95324.94;;;8.08
61595;BMP280;47397;48.194;11.632;2023-04-25T00:45:50;95316.44;;;8.10
61595;BMP280;47397;48.194;11.632;2023-04-25T00:46:54;95319.69;;;8.15
61595;BMP280;47397;48.194;11.632;2023-04-25T00:47:54;95315.66;;;8.07
61595;BMP280;47397;48.194;11.632;2023-04-25T00:48:55;95312.38;;;8.03
61595;BMP280;47397;48.194;11.632;2023-04-25T00:49:55;95317.38;;;8.06
61595;BMP280;47397;48.194;11.632;2023-04-25T00:50:58;95312.88;;;8.18
61595;BMP280;47397;48.194;11.632;2023-04-25T00:51:59;95319.09;;;8.04
61595;BMP280;47397;48.194;11.632;2023-04-25T00:53:00;95318.25;;;8.05
61595;BMP280;47397;48.194;11.632;2023-04-25T00:54:01;95316.78;;;7.95
61595;BMP280;47397;48.194;11.632;2023-04-25T00:55:01;95312.56;;;7.96
61595;BMP280;47397;48.194;11.632;2023-04-25T00:56:02;95312.28;;;8.08
61595;BMP280;47397;48.194;11.632;2023-04-25T00:57:02;95317.44;;;8.03
61595;BMP280;47397;48.194;11.632;2023-04-25T00:58:03;95313.25;;;8.02
61595;BMP280;47397;48.194;11.632;2023-04-25T00:59:03;95315.78;;;8.02
61595;BMP280;47397;48.194;11.632;2023-04-25T01:00:05;95316.09;;;7.89
61595;BMP280;47397;48.194;11.632;2023-04-25T01:01:06;95305.91;;;7.92
61595;BMP280;47397;48.194;11.632;2023-04-25T01:02:09;95311.66;;;7.98
61595;BMP280;47397;48.194;11.632;2023-04-25T01:03:09;95307.28;;;8.05
61595;BMP280;47397;48.194;11.632;2023-04-25T01:04:10;95311.47;;;8.06
61595;BMP280;47397;48.194;11.632;2023-04-25T01:05:10;95309.13;;;7.98
61595;BMP280;47397;48.194;11.632;2023-04-25T01:06:11;95311.47;;;8.06
61595;BMP280;47397;48.194;11.632;2023-04-25T01:07:12;95313.13;;;8.07
61595;BMP280;47397;48.194;11.632;2023-04-25T01:08:12;95314.91;;;8.03
61595;BMP280;47397;48.194;11.632;2023-04-25T01:09:13;95309.69;;;8.09
61595;BMP280;47397;48.194;11.632;2023-04-25T01:10:13;95312.28;;;8.08
61595;BMP280;47397;48.194;11.632;2023-04-25T01:11:14;95311.44;;;8.07
61595;BMP280;47397;48.194;11.632;2023-04-25T01:12:14;95308.19;;;8.02
61595;BMP280;47397;48.194;11.632;2023-04-25T01:13:15;95312.63;;;7.93
61595;BMP280;47397;48.194;11.632;2023-04-25T01:14:15;95309.84;;;8.03
61595;BMP280;47397;48.194;11.632;2023-04-25T01:15:16;95313.41;;;7.96
61595;BMP280;47397;48.194;11.632;2023-04-25T01:16:16;95309.13;;;7.98
61595;BMP280;47397;48.194;11.632;2023-04-25T01:17:19;95319.31;;;7.95
61595;BMP280;47397;48.194;11.632;2023-04-25T01:18:20;95319.59;;;7.83
61595;BMP280;47397;48.194;11.632;2023-04-25T01:19:20;95310.22;;;7.88
61595;BMP280;47397;48.194;11.632;2023-04-25T01:20:22;95314.38;;;7.91
61595;BMP280;47397;48.194;11.632;2023-04-25T01:21:23;95312.06;;;7.81
61595;BMP280;47397;48.194;11.632;2023-04-25T01:22:24;95311.28;;;7.76
61595;BMP280;47397;48.194;11.632;2023-04-25T01:23:24;95306.38;;;7.70
61595;BMP280;47397;48.194;11.632;2023-04-25T01:24:25;95309.00;;;7.66
61595;BMP280;47397;48.194;11.632;2023-04-25T01:25:25;95303.09;;;7.67
61595;BMP280;47397;48.194;11.632;2023-04-25T01:26:26;95304.84;;;7.63
61595;BMP280;47397;48.194;11.632;2023-04-25T01:27:27;95307.09;;;7.75
61595;BMP280;47397;48.194;11.632;2023-04-25T01:28:28;95305.69;;;7.64
61595;BMP280;47397;48.194;11.632;2023-04-25T01:29:28;95298.06;;;7.65
61595;BMP280;47397;48.194;11.632;2023-04-25T01:30:29;95301.63;;;7.57
61595;BMP280;47397;48.194;11.632;2023-04-25T01:31:30;95303.13;;;7.65
61595;BMP280;47397;48.194;11.632;2023-04-25T01:32:31;95295.13;;;7.46
61595;BMP280;47397;48.194;11.632;2023-04-25T01:33:31;95304.22;;;7.53
61595;BMP280;47397;48.194;11.632;2023-04-25T01:34:32;95303.22;;;7.61
61595;BMP280;47397;48.194;11.632;2023-04-25T01:35:32;95306.59;;;7.61
61595;BMP280;47397;48.194;11.632;2023-04-25T01:36:34;95310.97;;;7.13
61595;BMP280;47397;48.194;11.632;2023-04-25T01:37:35;95300.44;;;7.33
61595;BMP280;47397;48.194;11.632;2023-04-25T01:38:35;95306.41;;;7.30
61595;BMP280;47397;48.194;11.632;2023-04-25T01:39:36;95302.13;;;7.32
61595;BMP280;47397;48.194;11.632;2023-04-25T01:40:38;95299.44;;;7.40
61595;BMP280;47397;48.194;11.632;2023-04-25T01:41:39;95297.06;;;7.34
61595;BMP280;47397;48.194;11.632;2023-04-25T01:42:41;95299.50;;;7.37
61595;BMP280;47397;48.194;11.632;2023-04-25T01:43:41;95296.78;;;7.47
61595;BMP280;47397;48.194;11.632;2023-04-25T01:44:42;95300.09;;;7.49
61595;BMP280;47397;48.194;11.632;2023-04-25T01:45:42;95294.94;;;7.54
61595;BMP280;47397;48.194;11.632;2023-04-25T01:46:43;95297.63;;;7.48
61595;BMP280;47397;48.194;11.632;2023-04-25T01:47:44;95294.25;;;7.47
61595;BMP280;47397;48.194;11.632;2023-04-25T01:48:45;95294.13;;;7.53
61595;BMP280;47397;48.194;11.632;2023-04-25T01:49:45;95291.00;;;7.41
61595;BMP280;47397;48.194;11.632;2023-04-25T01:50:46;95297.81;;;7.37
61595;BMP280;47397;48.194;11.632;2023-04-25T01:51:47;95297.63;;;7.48
61595;BMP280;47397;48.194;11.632;2023-04-25T01:52:48;95301.25;;;7.35
61595;BMP280;47397;48.194;11.632;2023-04-25T01:53:49;95299.38;;;7.44
61595;BMP280;47397;48.194;11.632;2023-04-25T01:54:50;95295.25;;;7.39
61595;BMP280;47397;48.194;11.632;2023-04-25T01:55:51;95297.78;;;7.39
61595;BMP280;47397;48.194;11.632;2023-04-25T01:56:51;95294.34;;;7.41
61595;BMP280;47397;48.194;11.632;2023-04-25T01:57:52;95295.88;;;7.50
61595;BMP280;47397;48.194;11.632;2023-04-25T01:58:53;95290.84;;;7.48
61595;BMP280;47397;48.194;11.632;2023-04-25T01:59:57;95299.41;;;7.41
61595;BMP280;47397;48.194;11.632;2023-04-25T02:00:58;95303.59;;;7.44
61595;BMP280;47397;48.194;11.632;2023-04-25T02:01:59;95293.66;;;7.35
61595;BMP280;47397;48.194;11.632;2023-04-25T02:02:59;95297.81;;;7.37
61595;BMP280;47397;48.194;11.632;2023-04-25T02:03:59;95292.13;;;7.28
61595;BMP280;47397;48.194;11.632;2023-04-25T02:05:00;95297.97;;;7.30
61595;BMP280;47397;48.194;11.632;2023-04-25T02:06:00;95295.25;;;7.39
61595;BMP280;47397;48.194;11.632;2023-04-25T02:07:03;95293.03;;;7.25
61595;BMP280;47397;48.194;11.632;2023-04-25T02:08:05;95295.84;;;7.11
61595;BMP280;47397;48.194;11.632;2023-04-25T02:09:06;95299.94;;;7.17
61595;BMP280;47397;48.194;11.632;2023-04-25T02:10:07;95292.94;;;7.30
61595;BMP280;47397;48.194;11.632;2023-04-25T02:11:07;95290.28;;;7.34
61595;BMP280;47397;48.194;11.632;2023-04-25T02:12:09;95289.34;;;7.40
61595;BMP280;47397;48.194;11.632;2023-04-25T02:13:10;95291.03;;;7.39
61595;BMP280;47397;48.194;11.632;2023-04-25T02:14:10;95286.72;;;7.44
61595;BMP280;47397;48.194;11.632;2023-04-25T02:15:11;95291.91;;;7.38
61595;BMP280;47397;48.194;11.632;2023-04-25T02:16:11;95290.22;;;7.37
61595;BMP280;47397;48.194;11.632;2023-04-25T02:17:12;95285.00;;;7.46
61595;BMP280;47397;48.194;11.632;2023-04-25T02:18:12;95287.63;;;7.40
61595;BMP280;47397;48.194;11.632;2023-04-25T02:19:13;95289.28;;;7.41
61595;BMP280;47397;48.194;11.632;2023-04-25T02:20:13;95286.25;;;7.27
61595;BMP280;47397;48.194;11.632;2023-04-25T02:21:14;95287.03;;;7.29
61595;BMP280;47397;48.194;11.632;2023-04-25T02:22:16;95290.59;;;7.20
61595;BMP280;47397;48.194;11.632;2023-04-25T02:23:16;95291.13;;;6.93
61595;BMP280;47397;48.194;11.632;2023-04-25T02:24:16;95298.13;;;6.80
61595;BMP280;47397;48.194;11.632;2023-04-25T02:25:17;95302.06;;;6.94
61595;BMP280;47397;48.194;11.632;2023-04-25T02:26:18;95298.47;;;7.07
61595;BMP280;47397;48.194;11.632;2023-04-25T02:27:18;95299.28;;;7.06
61595;BMP280;47397;48.194;11.632;2023-04-25T02:28:19;95300.84;;;7.13
61595;BMP280;47397;48.194;11.632;2023-04-25T02:29:19;95293.84;;;7.26
61595;BMP280;47397;48.194;11.632;2023-04-25T02:30:19;95287.09;;;7.26
61595;BMP280;47397;48.194;11.632;2023-04-25T02:31:20;95294.59;;;7.31
61595;BMP280;47397;48.194;11.632;2023-04-25T02:32:20;95293.56;;;7.39
61595;BMP280;47397;48.194;11.632;2023-04-25T02:33:21;95286.03;;;7.36
61595;BMP280;47397;48.194;11.632;2023-04-25T02:34:21;95288.53;;;7.38
61595;BMP280;47397;48.194;11.632;2023-04-25T02:35:22;95288.47;;;7.41
61595;BMP280;47397;48.194;11.632;2023-04-25T02:36:22;95286.97;;;7.32
61595;BMP280;47397;48.194;11.632;2023-04-25T02:37:24;95287.81;;;7.33
61595;BMP280;47397;48.194;11.632;2023-04-25T02:38:24;95286.00;;;7.38
61595;BMP280;47397;48.194;11.632;2023-04-25T02:39:25;95288.56;;;7.36
61595;BMP280;47397;48.194;11.632;2023-04-25T02:40:25;95280.47;;;7.20
61595;BMP280;47397;48.194;11.632;2023-04-25T02:41:26;95291.31;;;7.26
61595;BMP280;47397;48.194;11.632;2023-04-25T02:42:26;95283.69;;;7.29
61595;BMP280;47397;48.194;11.632;2023-04-25T02:43:27;95284.44;;;7.32
61595;BMP280;47397;48.194;11.632;2023-04-25T02:44:27;95284.50;;;7.29
61595;BMP280;47397;48.194;11.632;2023-04-25T02:45:28;95275.97;;;7.35
61595;BMP280;47397;48.194;11.632;2023-04-25T02:46:28;95274.22;;;7.37
61595;BMP280;47397;48.194;11.632;2023-04-25T02:47:29;95280.22;;;7.33
61595;BMP280;47397;48.194;11.632;2023-04-25T02:48:30;95276.66;;;7.41
61595;BMP280;47397;48.194;11.632;2023-04-25T02:49:30;95272.53;;;7.37
61595;BMP280;47397;48.194;11.632;2023-04-25T02:50:30;95275.78;;;7.42
61595;BMP280;47397;48.194;11.632;2023-04-25T02:51:31;95278.22;;;7.48
61595;BMP280;47397;48.194;11.632;2023-04-25T02:52:32;95280.91;;;7.39
61595;BMP280;47397;48.194;11.632;2023-04-25T02:53:33;95283.28;;;7.48
61595;BMP280;47397;48.194;11.632;2023-04-25T02:54:34;95277.44;;;7.45
61595;BMP280;47397;48.194;11.632;2023-04-25T02:55:35;95285.66;;;7.55
61595;BMP280;47397;48.194;11.632;2023-04-25T02:56:35;95280.59;;;7.55
61595;BMP280;47397;48.194;11.632;2023-04-25T02:57:35;95287.22;;;7.60
61595;BMP280;47397;48.194;11.632;2023-04-25T02:58:36;95282.19;;;7.59
61595;BMP280;47397;48.194;11.632;2023-04-25T02:59:36;95276.44;;;7.52
61595;BMP280;47397;48.194;11.632;2023-04-25T03:00:37;95280.47;;;7.61
61595;BMP280;47397;48.194;11.632;2023-04-25T03:01:37;95284.66;;;7.62
61595;BMP280;47397;48.194;11.632;2023-04-25T03:02:37;95279.50;;;7.66
61595;BMP280;47397;48.194;11.632;2023-04-25T03:03:38;95281.34;;;7.60
61595;BMP280;47397;48.194;11.632;2023-04-25T03:04:38;95287.47;;;7.49
61595;BMP280;47397;48.194;11.632;2023-04-25T03:05:38;95284.75;;;7.57
61595;BMP280;47397;48.194;11.632;2023-04-25T03:06:39;95281.38;;;7.58
61595;BMP280;47397;48.194;11.632;2023-04-25T03:07:41;95280.47;;;7.61
61595;BMP280;47397;48.194;11.632;2023-04-25T03:08:41;95281.34;;;7.60
61595;BMP280;47397;48.194;11.632;2023-04-25T03:09:41;95281.41;;;7.57
61595;BMP280;47397;48.194;11.632;2023-04-25T03:10:42;95278.69;;;7.64
61595;BMP280;47397;48.194;11.632;2023-04-25T03:11:43;95274.41;;;7.68
61595;BMP280;47397;48.194;11.632;2023-04-25T03:12:44;95279.53;;;7.65
61595;BMP280;47397;48.194;11.632;2023-04-25T03:13:44;95270.13;;;7.70
61595;BMP280;47397;48.194;11.632;2023-04-25T03:14:45;95271.69;;;7.75
61595;BMP280;47397;48.194;11.632;2023-04-25T03:15:45;95271.81;;;7.71
61595;BMP280;47397;48.194;11.632;2023-04-25T03:16:45;95269.38;;;7.66
61595;BMP280;47397;48.194;11.632;2023-04-25T03:17:46;95274.44;;;7.66
61595;BMP280;47397;48.194;11.632;2023-04-25T03:18:46;95271.06;;;7.66
61595;BMP280;47397;48.194;11.632;2023-04-25T03:19:47;95268.59;;;7.64
61595;BMP280;47397;48.194;11.632;2023-04-25T03:20:48;95268.41;;;7.72
61595;BMP280;47397;48.194;11.632;2023-04-25T03:21:48;95268.34;;;7.75
61595;BMP280;47397;48.194;11.632;2023-04-25T03:22:50;95270.13;;;7.70
61595;BMP280;47397;48.194;11.632;2023-04-25T03:23:50;95269.28;;;7.71
61595;BMP280;47397;48.194;11.632;2023-04-25T03:24:51;95271.94;;;7.65
61595;BMP280;47397;48.194;11.632;2023-04-25T03:25:51;95275.34;;;7.64
61595;BMP280;47397;48.194;11.632;2023-04-25T03:26:51;95264.28;;;7.68
61595;BMP280;47397;48.194;11.632;2023-04-25T03:27:52;95267.72;;;7.65
61595;BMP280;47397;48.194;11.632;2023-04-25T03:28:52;95262.66;;;7.65
61595;BMP280;47397;48.194;11.632;2023-04-25T03:29:53;95252.50;;;7.67
61595;BMP280;47397;48.194;11.632;2023-04-25T03:30:53;95253.59;;;7.57
61595;BMP280;47397;48.194;11.632;2023-04-25T03:31:53;95247.66;;;7.58
61595;BMP280;47397;48.194;11.632;2023-04-25T03:32:54;95243.22;;;7.67
61595;BMP280;47397;48.194;11.632;2023-04-25T03:33:54;95254.47;;;7.56
61595;BMP280;47397;48.194;11.632;2023-04-25T03:34:55;95257.13;;;7.49
61595;BMP280;47397;48.194;11.632;2023-04-25T03:35:55;95258.75;;;7.52
61595;BMP280;47397;48.194;11.632;2023-04-25T03:36:55;95263.28;;;7.36
61595;BMP280;47397;48.194;11.632;2023-04-25T03:37:57;95265.75;;;7.39
61595;BMP280;47397;48.194;11.632;2023-04-25T03:38:58;95262.34;;;7.40
61595;BMP280;47397;48.194;11.632;2023-04-25T03:39:58;95273.56;;;7.29
61595;BMP280;47397;48.194;11.632;2023-04-25T03:40:58;95272.66;;;7.31
61595;BMP280;47397;48.194;11.632;2023-04-25T03:41:59;95268.28;;;7.39
61595;BMP280;47397;48.194;11.632;2023-04-25T03:42:59;95269.97;;;7.39
61595;BMP280;47397;48.194;11.632;2023-04-25T03:43:59;95264.91;;;7.39
61595;BMP280;47397;48.194;11.632;2023-04-25T03:45:00;95266.00;;;7.29
61595;BMP280;47397;48.194;11.632;2023-04-25T03:46:00;95271.13;;;7.24
61595;BMP280;47397;48.194;11.632;2023-04-25T03:47:01;95275.13;;;7.34
61595;BMP280;47397;48.194;11.632;2023-04-25T03:48:01;95271.66;;;7.38
61595;BMP280;47397;48.194;11.632;2023-04-25T03:49:02;95275.16;;;7.33
61595;BMP280;47397;48.194;11.632;2023-04-25T03:50:02;95269.50;;;7.21
61595;BMP280;47397;48.194;11.632;2023-04-25T03:51:03;95272.78;;;7.27
61595;BMP280;47397;48.194;11.632;2023-04-25T03:52:03;95267.78;;;7.24
61595;BMP280;47397;48.194;11.632;2023-04-25T03:53:05;95255.16;;;7.24
61595;BMP280;47397;48.194;11.632;2023-04-25T03:54:06;95261.00;;;7.26
61595;BMP280;47397;48.194;11.632;2023-04-25T03:55:07;95268.41;;;7.33
61595;BMP280;47397;48.194;11.632;2023-04-25T03:56:07;95266.69;;;7.35
61595;BMP280;47397;48.194;11.632;2023-04-25T03:57:08;95275.09;;;7.36
61595;BMP280;47397;48.194;11.632;2023-04-25T03:58:08;95272.75;;;7.28
61595;BMP280;47397;48.194;11.632;2023-04-25T03:59:09;95270.06;;;7.34
61595;BMP280;47397;48.194;11.632;2023-04-25T04:00:10;95267.53;;;7.34
61595;BMP280;47397;48.194;11.632;2023-04-25T04:01:11;95263.53;;;7.26
61595;BMP280;47397;48.194;11.632;2023-04-25T04:02:11;95262.81;;;7.19
61595;BMP280;47397;48.194;11.632;2023-04-25T04:03:11;95268.53;;;7.27
61595;BMP280;47397;48.194;11.632;2023-04-25T04:04:12;95272.81;;;7.25
61595;BMP280;47397;48.194;11.632;2023-04-25T04:05:12;95266.31;;;7.13
61595;BMP280;47397;48.194;11.632;2023-04-25T04:06:13;95271.97;;;7.25
61595;BMP280;47397;48.194;11.632;2023-04-25T04:07:13;95257.19;;;7.06
61595;BMP280;47397;48.194;11.632;2023-04-25T04:08:15;95263.81;;;7.12
61595;BMP280;47397;48.194;11.632;2023-04-25T04:09:15;95261.75;;;7.29
61595;BMP280;47397;48.194;11.632;2023-04-25T04:10:15;95265.16;;;7.28
61595;BMP280;47397;48.194;11.632;2023-04-25T04:11:16;95263.50;;;7.27
61595;BMP280;47397;48.194;11.632;2023-04-25T04:12:16;95258.34;;;7.32
61595;BMP280;47397;48.194;11.632;2023-04-25T04:13:17;95259.94;;;7.36
61595;BMP280;47397;48.194;11.632;2023-04-25T04:14:17;95265.81;;;7.36
61595;BMP280;47397;48.194;11.632;2023-04-25T04:15:18;95263.78;;;7.13
61595;BMP280;47397;48.194;11.632;2023-04-25T04:16:18;95265.22;;;7.25
61595;BMP280;47397;48.194;11.632;2023-04-25T04:17:18;95268.72;;;7.19
61595;BMP280;47397;48.194;11.632;2023-04-25T04:18:19;95266.13;;;7.22
61595;BMP280;47397;48.194;11.632;2023-04-25T04:19:19;95261.84;;;7.26
61595;BMP280;47397;48.194;11.632;2023-04-25T04:20:20;95260.44;;;7.13
61595;BMP280;47397;48.194;11.632;2023-04-25T04:21:20;95263.13;;;7.04
61595;BMP280;47397;48.194;11.632;2023-04-25T04:22:20;95263.88;;;7.09
61595;BMP280;47397;48.194;11.632;2023-04-25T04:23:22;95260.41;;;7.14
61595;BMP280;47397;48.194;11.632;2023-04-25T04:24:23;95264.75;;;7.08
61595;BMP280;47397;48.194;11.632;2023-04-25T04:25:23;95259.59;;;7.12
61595;BMP280;47397;48.194;11.632;2023-04-25T04:26:23;95266.03;;;7.27
61595;BMP280;47397;48.194;11.632;2023-04-25T04:27:24;95258.56;;;7.21
61595;BMP280;47397;48.194;11.632;2023-04-25T04:28:24;95263.63;;;7.21
61595;BMP280;47397;48.194;11.632;2023-04-25T04:29:25;95261.09;;;7.21
61595;BMP280;47397;48.194;11.632;2023-04-25T04:30:25;95265.19;;;7.27
61595;BMP280;47397;48.194;11.632;2023-04-25T04:31:25;95273.53;;;7.30
61595;BMP280;47397;48.194;11.632;2023-04-25T04:32:26;95268.47;;;7.30
61595;BMP280;47397;48.194;11.632;2023-04-25T04:33:26;95266.06;;;7.26
61595;BMP280;47397;48.194;11.632;2023-04-25T04:34:27;95269.19;;;7.37
61595;BMP280;47397;48.194;11.632;2023-04-25T04:35:27;95267.53;;;7.34
61595;BMP280;47397;48.194;11.632;2023-04-25T04:36:27;95260.88;;;7.32
61595;BMP280;47397;48.194;11.632;2023-04-25T04:37:28;95264.09;;;7.38
61595;BMP280;47397;48.194;11.632;2023-04-25T04:38:30;95276.25;;;7.21
61595;BMP280;47397;48.194;11.632;2023-04-25T04:39:30;95263.72;;;7.16
61595;BMP280;47397;48.194;11.632;2023-04-25T04:40:31;95273.63;;;7.26
61595;BMP280;47397;48.194;11.632;2023-04-25T04:41:31;95274.59;;;7.20
61595;BMP280;47397;48.194;11.632;2023-04-25T04:42:32;95269.63;;;7.17
61595;BMP280;47397;48.194;11.632;2023-04-25T04:43:32;95275.41;;;7.22
61595;BMP280;47397;48.194;11.632;2023-04-25T04:44:32;95270.19;;;7.30
61595;BMP280;47397;48.194;11.632;2023-04-25T04:45:33;95265.16;;;7.28
61595;BMP280;47397;48.194;11.632;2023-04-25T04:46:33;95265.06;;;7.33
61595;BMP280;47397;48.194;11.632;2023-04-25T04:47:33;95265.94;;;7.30
61595;BMP280;47397;48.194;11.632;2023-04-25T04:48:34;95268.50;;;7.29
61595;BMP280;47397;48.194;11.632;2023-04-25T04:49:34;95270.03;;;7.36
61595;BMP280;47397;48.194;11.632;2023-04-25T04:50:35;95265.75;;;7.39
61595;BMP280;47397;48.194;11.632;2023-04-25T04:51:35;95274.16;;;7.40
61595;BMP280;47397;48.194;11.632;2023-04-25T04:52:36;95269.94;;;7.40
61595;BMP280;47397;48.194;11.632;2023-04-25T04:53:38;95274.97;;;7.42
61595;BMP280;47397;48.194;11.632;2023-04-25T04:54:38;95273.47;;;7.33
61595;BMP280;47397;48.194;11.632;2023-04-25T04:55:39;95276.78;;;7.35
61595;BMP280;47397;48.194;11.632;2023-04-25T04:56:39;95272.63;;;7.33
61595;BMP280;47397;48.194;11.632;2023-04-25T04:57:39;95277.78;;;7.28
61595;BMP280;47397;48.194;11.632;2023-04-25T04:58:40;95272.81;;;7.25
61595;BMP280;47397;48.194;11.632;2023-04-25T04:59:40;95278.63;;;7.29
61595;BMP280;47397;48.194;11.632;2023-04-25T05:00:41;95276.09;;;7.29
61595;BMP280;47397;48.194;11.632;2023-04-25T05:01:41;95272.00;;;7.23
61595;BMP280;47397;48.194;11.632;2023-04-25T05:02:41;95272.75;;;7.28
61595;BMP280;47397;48.194;11.632;2023-04-25T05:03:42;95275.03;;;7.39
61595;BMP280;47397;48.194;11.632;2023-04-25T05:04:42;95270.00;;;7.37
61595;BMP280;47397;48.194;11.632;2023-04-25T05:05:43;95271.56;;;7.44
61595;BMP280;47397;48.194;11.632;2023-04-25T05:06:43;95265.94;;;7.30
61595;BMP280;47397;48.194;11.632;2023-04-25T05:07:43;95260.09;;;7.28
61595;BMP280;47397;48.194;11.632;2023-04-25T05:08:45;95261.06;;;7.22
61595;BMP280;47397;48.194;11.632;2023-04-25T05:09:45;95262.84;;;7.17
61595;BMP280;47397;48.194;11.632;2023-04-25T05:10:46;95260.06;;;7.30
61595;BMP280;47397;48.194;11.632;2023-04-25T05:11:46;95253.16;;;7.38
61595;BMP280;47397;48.194;11.632;2023-04-25T05:12:47;95253.31;;;7.30
61595;BMP280;47397;48.194;11.632;2023-04-25T05:13:47;95250.75;;;7.32
61595;BMP280;47397;48.194;11.632;2023-04-25T05:14:47;95252.28;;;7.39
61595;BMP280;47397;48.194;11.632;2023-04-25T05:15:48;95255.72;;;7.36
61595;BMP280;47397;48.194;11.632;2023-04-25T05:16:48;95244.16;;;7.25
61595;BMP280;47397;48.194;11.632;2023-04-25T05:17:49;95254.94;;;7.33
61595;BMP280;47397;48.194;11.632;2023-04-25T05:18:49;95249.75;;;7.39
61595;BMP280;47397;48.194;11.632;2023-04-25T05:19:49;95253.00;;;7.45
61595;BMP280;47397;48.194;11.632;2023-04-25T05:20:50;95248.09;;;7.38
61595;BMP280;47397;48.194;11.632;2023-04-25T05:21:50;95252.78;;;7.16
61595;BMP280;47397;48.194;11.632;2023-04-25T05:22:51;95258.97;;;7.41
61595;BMP280;47397;48.194;11.632;2023-04-25T05:23:53;95263.06;;;7.48
61595;BMP280;47397;48.194;11.632;2023-04-25T05:24:53;95254.91;;;7.34
61595;BMP280;47397;48.194;11.632;2023-04-25T05:25:54;95258.16;;;7.39
61595;BMP280;47397;48.194;11.632;2023-04-25T05:26:54;95258.78;;;7.50
61595;BMP280;47397;48.194;11.632;2023-04-25T05:27:55;95262.06;;;7.54
61595;BMP280;47397;48.194;11.632;2023-04-25T05:28:55;95262.03;;;7.56
61595;BMP280;47397;48.194;11.632;2023-04-25T05:29:55;95256.59;;;7.34
61595;BMP280;47397;48.194;11.632;2023-04-25T05:30:56;95260.72;;;7.38
61595;BMP280;47397;48.194;11.632;2023-04-25T05:31:56;95260.59;;;7.45
61595;BMP280;47397;48.194;11.632;2023-04-25T05:32:57;95261.03;;;7.24
61595;BMP280;47397;48.194;11.632;2023-04-25T05:33:57;95252.44;;;7.31
61595;BMP280;47397;48.194;11.632;2023-04-25T05:34:57;95262.25;;;7.46
61595;BMP280;47397;48.194;11.632;2023-04-25T05:35:58;95265.88;;;7.33
61595;BMP280;47397;48.194;11.632;2023-04-25T05:36:58;95262.44;;;7.37
61595;BMP280;47397;48.194;11.632;2023-04-25T05:37:59;95261.38;;;7.47
61595;BMP280;47397;48.194;11.632;2023-04-25T05:39:00;95267.31;;;7.46
61595;BMP280;47397;48.194;11.632;2023-04-25T05:40:02;95258.28;;;7.35
61595;BMP280;47397;48.194;11.632;2023-04-25T05:41:03;95259.16;;;7.32
61595;BMP280;47397;48.194;11.632;2023-04-25T05:42:03;95270.88;;;7.36
61595;BMP280;47397;48.194;11.632;2023-04-25T05:43:04;95262.44;;;7.37
61595;BMP280;47397;48.194;11.632;2023-04-25T05:44:04;95266.63;;;7.38
61595;BMP280;47397;48.194;11.632;2023-04-25T05:45:05;95261.69;;;7.32
61595;BMP280;47397;48.194;11.632;2023-04-25T05:46:06;95265.69;;;7.44
61595;BMP280;47397;48.194;11.632;2023-04-25T05:47:06;95260.00;;;7.33
61595;BMP280;47397;48.194;11.632;2023-04-25T05:48:07;95258.50;;;7.24
61595;BMP280;47397;48.194;11.632;2023-04-25T05:49:07;95260.97;;;7.27